Time;durP1;ratioP1;P1;durP2;ratioP2;P2;SDS_P1;SDS_P2;PMS_P1;PMS_P2;Temp;Humidity;BMP_temperature;BMP_pressure;BME280_temperature;BME280_humidity;BME280_pressure;Samples;Min_cycle;Max_cycle;Signal;HPM_P1;HPM_P2
2021/04/30 00:00:30;;;;;;;15.00;9.57;;;;;;;8.67;100.00;95434.34;1027639;28;20023;-61
2021/04/30 00:01:00;;;;;;;12.27;9.00;;;;;;;8.69;100.00;95429.72;1027636;28;20153;-61
2021/04/30 00:01:31;;;;;;;13.32;8.63;;;;;;;8.66;100.00;95424.78;1027643;28;20081;-60
2021/04/30 00:02:02;;;;;;;10.90;8.65;;;;;;;8.72;100.00;95436.47;1027550;28;20509;-62
2021/04/30 00:02:33;;;;;;;12.48;8.70;;;;;;;8.70;100.00;95428.72;1031621;28;20038;-60
2021/04/30 00:03:04;;;;;;;13.63;9.10;;;;;;;8.67;100.00;95440.50;1031594;28;20018;-61
2021/04/30 00:03:35;;;;;;;13.45;9.25;;;;;;;8.67;100.00;95439.66;1031414;28;20405;-61
2021/04/30 00:04:06;;;;;;;13.20;8.75;;;;;;;8.72;100.00;95437.28;1031375;28;20134;-61
2021/04/30 00:04:37;;;;;;;11.65;8.52;;;;;;;8.75;100.00;95430.84;1031610;28;20520;-61
2021/04/30 00:05:09;;;;;;;13.20;9.55;;;;;;;8.77;100.00;95439.41;1031566;28;20117;-60
2021/04/30 00:05:40;;;;;;;11.43;8.15;;;;;;;8.76;100.00;95435.13;1031685;28;20019;-60
2021/04/30 00:06:11;;;;;;;12.25;9.15;;;;;;;8.75;100.00;95430.84;1035598;28;20036;-60
2021/04/30 00:06:42;;;;;;;13.90;8.38;;;;;;;8.78;100.00;95428.66;1031567;28;20073;-61
2021/04/30 00:07:13;;;;;;;12.80;8.57;;;;;;;8.64;100.00;95402.97;1035624;28;20034;-61
2021/04/30 00:07:43;;;;;;;11.25;8.98;;;;;;;8.82;100.00;95426.47;1039611;28;20022;-61
2021/04/30 00:08:14;;;;;;;13.45;8.77;;;;;;;8.85;100.00;95434.88;1035512;28;20014;-61
2021/04/30 00:08:45;;;;;;;9.68;8.07;;;;;;;8.83;100.00;95428.94;1035751;28;20467;-61
2021/04/30 00:09:17;;;;;;;11.50;8.48;;;;;;;8.86;100.00;95427.75;1035688;28;20017;-60
2021/04/30 00:09:48;;;;;;;12.65;7.95;;;;;;;8.86;100.00;95438.34;1031496;28;20014;-61
2021/04/30 00:10:19;;;;;;;11.43;8.35;;;;;;;8.81;100.00;95430.94;1031579;28;20014;-61
2021/04/30 00:10:50;;;;;;;11.48;8.32;;;;;;;8.79;100.00;95424.19;1031598;28;20042;-60
2021/04/30 00:11:20;;;;;;;12.38;8.30;;;;;;;8.86;100.00;95433.91;1031690;28;20412;-60
2021/04/30 00:11:51;;;;;;;14.05;8.38;;;;;;;8.85;100.00;95432.22;1031549;28;20019;-61
2021/04/30 00:12:22;;;;;;;12.50;8.52;;;;;;;8.82;100.00;95432.59;1027559;28;20555;-61
2021/04/30 00:12:53;;;;;;;12.27;8.50;;;;;;;8.83;100.00;95434.25;1035622;28;20100;-58
2021/04/30 00:13:24;;;;;;;11.73;8.40;;;;;;;8.85;100.00;95440.19;1027587;28;20070;-61
2021/04/30 00:13:55;;;;;;;12.52;8.80;;;;;;;8.87;100.00;95434.72;1031491;28;20018;-59
2021/04/30 00:14:25;;;;;;;12.18;8.77;;;;;;;8.87;100.00;95440.00;1043913;28;20033;-61
2021/04/30 00:14:56;;;;;;;13.73;8.45;;;;;;;8.86;100.00;95436.53;1031521;28;20026;-61
2021/04/30 00:15:27;;;;;;;11.90;8.40;;;;;;;8.79;100.00;95421.53;1031513;28;20010;-61
2021/04/30 00:15:58;;;;;;;11.25;7.97;;;;;;;8.89;100.00;95434.53;1031481;28;20018;-61
2021/04/30 00:16:28;;;;;;;12.57;8.27;;;;;;;8.91;100.00;95436.00;1027597;28;20021;-62
2021/04/30 00:16:59;;;;;;;11.93;7.93;;;;;;;8.85;100.00;95428.78;1035564;28;20029;-62
2021/04/30 00:17:30;;;;;;;12.35;8.75;;;;;;;8.81;100.00;95428.31;1035681;28;20476;-61
2021/04/30 00:18:05;;;;;;;13.18;8.50;;;;;;;8.80;100.00;95433.78;1035637;28;20017;-61
2021/04/30 00:18:36;;;;;;;14.10;8.45;;;;;;;8.78;100.00;95430.50;1039667;28;20010;-61
2021/04/30 00:19:07;;;;;;;12.85;9.20;;;;;;;8.76;100.00;95430.66;1031572;28;20018;-61
2021/04/30 00:19:38;;;;;;;10.38;8.35;;;;;;;8.83;100.00;95438.69;1035617;28;20017;-61
2021/04/30 00:20:10;;;;;;;11.68;8.20;;;;;;;8.80;100.00;95434.59;1033546;28;20038;-60
2021/04/30 00:20:51;;;;;;;14.80;8.70;;;;;;;8.82;100.00;95435.22;1035617;28;20014;-60
2021/04/30 00:21:22;;;;;;;11.93;8.27;;;;;;;8.84;100.00;95425.28;1031690;28;20026;-59
2021/04/30 00:21:53;;;;;;;13.27;8.18;;;;;;;8.84;100.00;95441.16;1035625;28;20033;-61
2021/04/30 00:22:23;;;;;;;10.88;7.93;;;;;;;8.85;100.00;95431.41;1031569;28;20064;-61
2021/04/30 00:22:54;;;;;;;11.13;8.18;;;;;;;8.83;100.00;95425.44;1039612;28;20452;-60
2021/04/30 00:23:26;;;;;;;14.65;8.77;;;;;;;8.84;100.00;95429.75;1031500;28;20019;-59
2021/04/30 00:23:59;;;;;;;10.00;8.35;;;;;;;8.84;100.00;95424.47;1031356;28;20566;-60
2021/04/30 00:24:30;;;;;;;14.30;8.25;;;;;;;8.86;100.00;95433.91;1027634;28;20040;-60
2021/04/30 00:25:00;;;;;;;12.02;7.82;;;;;;;8.89;100.00;95431.88;1031494;28;20017;-61
2021/04/30 00:25:31;;;;;;;11.48;8.23;;;;;;;8.91;100.00;95429.88;1039701;28;20025;-61
2021/04/30 00:26:04;;;;;;;9.32;8.10;;;;;;;8.91;100.00;95430.69;1031581;28;20014;-61
2021/04/30 00:26:35;;;;;;;10.30;7.80;;;;;;;8.90;100.00;95430.88;1031520;28;20014;-61
2021/04/30 00:27:06;;;;;;;11.35;8.35;;;;;;;8.91;100.00;95432.53;1027501;28;20019;-61
2021/04/30 00:27:37;;;;;;;12.55;8.43;;;;;;;8.85;100.00;95426.94;1031488;28;20509;-61
2021/04/30 00:28:08;;;;;;;12.43;8.77;;;;;;;8.84;100.00;95433.22;1031612;28;20023;-59
2021/04/30 00:28:38;;;;;;;14.90;8.65;;;;;;;8.83;100.00;95431.59;1031569;28;20027;-61
2021/04/30 00:29:09;;;;;;;13.18;8.98;;;;;;;8.85;100.00;95432.22;1027442;28;20030;-60
2021/04/30 00:29:40;;;;;;;11.23;8.48;;;;;;;8.86;100.00;95430.41;1031635;28;20015;-60
2021/04/30 00:30:14;;;;;;;14.30;8.70;;;;;;;8.86;100.00;95422.47;1031544;28;20061;-61
2021/04/30 00:30:45;;;;;;;11.80;8.40;;;;;;;8.89;100.00;95426.59;1035638;28;20037;-61
2021/04/30 00:31:18;;;;;;;11.00;8.07;;;;;;;8.90;100.00;95431.72;1031429;28;20026;-60
2021/04/30 00:31:49;;;;;;;11.63;8.55;;;;;;;8.89;100.00;95424.75;1031551;28;20466;-60
2021/04/30 00:32:20;;;;;;;11.55;7.90;;;;;;;8.88;100.00;95425.75;1027581;28;20019;-60
2021/04/30 00:32:51;;;;;;;12.20;8.15;;;;;;;8.90;100.00;95428.22;1027535;28;20465;-59
2021/04/30 00:33:22;;;;;;;12.90;8.95;;;;;;;8.89;100.00;95426.59;1031551;28;20078;-60
2021/04/30 00:33:53;;;;;;;15.15;8.38;;;;;;;8.89;100.00;95426.59;1039558;28;20029;-61
2021/04/30 00:34:24;;;;;;;11.45;8.15;;;;;;;8.91;100.00;95429.88;1035641;28;20073;-61
2021/04/30 00:34:55;;;;;;;10.32;8.50;;;;;;;8.91;100.00;95424.59;1035646;28;20054;-62
2021/04/30 00:35:25;;;;;;;11.10;7.75;;;;;;;8.91;100.00;95430.69;1035493;28;20022;-60
2021/04/30 00:35:56;;;;;;;15.27;8.35;;;;;;;8.90;100.00;95429.06;1031580;28;20073;-61
2021/04/30 00:36:27;;;;;;;13.48;8.40;;;;;;;8.83;100.00;95422.81;1027610;28;20058;-62
2021/04/30 00:36:57;;;;;;;11.15;8.40;;;;;;;8.82;100.00;95427.28;1035659;28;20044;-61
2021/04/30 00:37:28;;;;;;;12.13;8.52;;;;;;;8.84;100.00;95427.94;1031458;28;20177;-62
2021/04/30 00:37:59;;;;;;;11.77;8.55;;;;;;;8.84;100.00;95427.94;1031645;28;20046;-61
2021/04/30 00:38:30;;;;;;;13.70;8.82;;;;;;;8.86;100.00;95431.25;1039851;28;20013;-60
2021/04/30 00:39:02;;;;;;;13.80;8.57;;;;;;;8.86;100.00;95436.53;1027546;28;20556;-61
2021/04/30 00:39:34;;;;;;;11.88;8.90;;;;;;;8.86;100.00;95430.41;1031396;28;20050;-61
2021/04/30 00:40:07;;;;;;;15.38;8.90;;;;;;;8.86;100.00;95431.25;1031536;28;20018;-61
2021/04/30 00:40:38;;;;;;;11.38;8.05;;;;;;;8.87;100.00;95430.22;1035582;28;20041;-61
2021/04/30 00:41:09;;;;;;;11.43;7.78;;;;;;;8.87;100.00;95434.72;1031586;28;20018;-61
2021/04/30 00:41:42;;;;;;;12.88;8.43;;;;;;;8.89;100.00;95432.69;1027425;28;20118;-61
2021/04/30 00:42:15;;;;;;;12.35;8.50;;;;;;;8.86;100.00;95436.53;1031560;28;20526;-61
2021/04/30 00:42:46;;;;;;;13.45;9.38;;;;;;;8.85;100.00;95436.72;1031667;28;20030;-61
2021/04/30 00:43:17;;;;;;;14.15;8.80;;;;;;;8.86;100.00;95439.19;1040061;28;20112;-61
2021/04/30 00:43:47;;;;;;;13.65;8.60;;;;;;;8.87;100.00;95438.16;1032702;28;20018;-61
2021/04/30 00:44:19;;;;;;;12.27;8.98;;;;;;;8.85;100.00;95437.53;1041320;28;20471;-61
2021/04/30 00:44:50;;;;;;;12.48;8.32;;;;;;;8.85;100.00;95436.72;1041553;28;20084;-58
2021/04/30 00:45:23;;;;;;;14.18;9.10;;;;;;;8.82;100.00;95443.19;1037560;28;20018;-60
2021/04/30 00:45:53;;;;;;;14.02;8.73;;;;;;;8.80;100.00;95439.88;1037886;28;20022;-61
2021/04/30 00:46:24;;;;;;;10.10;8.23;;;;;;;8.85;100.00;95442.81;1033536;28;20014;-62
2021/04/30 00:46:55;;;;;;;12.48;9.18;;;;;;;8.74;100.00;95447.72;1034004;28;20052;-61
2021/04/30 00:47:28;;;;;;;11.05;8.80;;;;;;;8.76;100.00;95443.06;1042462;28;20017;-62
2021/04/30 00:47:59;;;;;;;13.10;8.50;;;;;;;8.79;100.00;95446.16;1034145;28;20049;-60
2021/04/30 00:48:29;;;;;;;12.98;8.73;;;;;;;8.83;100.00;95450.13;1034783;28;20032;-60
2021/04/30 00:49:00;;;;;;;15.43;9.25;;;;;;;8.84;100.00;95451.75;1034645;28;20024;-59
2021/04/30 00:49:31;;;;;;;14.32;9.02;;;;;;;8.87;100.00;95451.41;1030316;28;20030;-60
2021/04/30 00:50:05;;;;;;;11.13;8.10;;;;;;;8.86;100.00;95444.47;1030253;28;20105;-60
2021/04/30 00:50:36;;;;;;;12.55;8.13;;;;;;;8.92;100.00;95442.94;1040746;28;20108;-60
2021/04/30 00:51:07;;;;;;;12.80;8.50;;;;;;;8.92;100.00;95452.69;1036369;28;20365;-59
2021/04/30 00:51:37;;;;;;;13.18;8.75;;;;;;;8.92;100.00;95450.03;1032445;28;20018;-61
2021/04/30 00:52:08;;;;;;;10.48;8.23;;;;;;;8.92;100.00;95452.69;1032198;28;20484;-62
2021/04/30 00:52:39;;;;;;;11.68;8.15;;;;;;;8.94;100.00;95445.41;1032343;28;20423;-61
2021/04/30 00:53:10;;;;;;;12.07;9.38;;;;;;;8.93;100.00;95452.50;1032287;28;20030;-61
2021/04/30 00:53:40;;;;;;;14.93;8.80;;;;;;;8.92;100.00;95456.19;1028209;28;20531;-61
2021/04/30 00:54:11;;;;;;;12.02;8.30;;;;;;;8.95;100.00;95455.00;1032217;28;20054;-61
2021/04/30 00:54:42;;;;;;;12.65;8.70;;;;;;;8.95;100.00;95449.69;1032389;28;20011;-61
2021/04/30 00:55:14;;;;;;;12.63;8.95;;;;;;;8.98;100.00;95457.28;1032324;28;20063;-61
2021/04/30 00:55:45;;;;;;;12.93;8.60;;;;;;;8.97;100.00;95452.97;1032374;28;20050;-61
2021/04/30 00:56:16;;;;;;;15.70;8.77;;;;;;;8.98;100.00;95450.16;1032230;28;20438;-61
2021/04/30 00:56:46;;;;;;;12.00;8.45;;;;;;;8.96;100.00;95452.16;1032350;28;20192;-60
2021/04/30 00:57:17;;;;;;;11.82;8.35;;;;;;;8.94;100.00;95458.66;1040494;28;20037;-61
2021/04/30 00:57:51;;;;;;;12.27;8.65;;;;;;;8.97;100.00;95450.34;1032312;28;20030;-61
2021/04/30 00:58:22;;;;;;;10.88;8.32;;;;;;;9.01;100.00;95449.00;1036237;28;20029;-61
2021/04/30 00:58:53;;;;;;;13.38;9.02;;;;;;;9.01;100.00;95451.66;1036305;28;20029;-61
2021/04/30 00:59:24;;;;;;;13.13;8.05;;;;;;;9.02;100.00;95458.56;1036299;28;20026;-59
2021/04/30 00:59:55;;;;;;;10.82;8.35;;;;;;;9.04;100.00;95451.28;1036232;28;20026;-61
2021/04/30 01:00:29;;;;;;;10.02;8.00;;;;;;;9.05;100.00;95447.63;1032213;28;20014;-61
2021/04/30 01:01:00;;;;;;;11.57;8.25;;;;;;;9.05;100.00;95445.78;1028247;28;20106;-61
2021/04/30 01:01:31;;;;;;;11.73;7.47;;;;;;;9.05;100.00;95445.78;1029039;28;20506;-61
2021/04/30 01:02:02;;;;;;;12.43;8.90;;;;;;;9.08;100.00;95449.91;1037018;28;20026;-61
2021/04/30 01:02:33;;;;;;;15.10;8.73;;;;;;;9.08;100.00;95447.28;1036383;28;20018;-62
2021/04/30 01:03:07;;;;;;;10.50;7.78;;;;;;;9.10;100.00;95452.41;1040426;28;20021;-61
2021/04/30 01:03:38;;;;;;;13.20;8.68;;;;;;;9.08;100.00;95457.06;1032090;28;20496;-62
2021/04/30 01:04:09;;;;;;;10.77;7.78;;;;;;;9.07;100.00;95450.91;1032228;28;20018;-60
2021/04/30 01:04:40;;;;;;;13.15;8.15;;;;;;;9.10;100.00;95453.22;1028187;28;20026;-61
2021/04/30 01:05:11;;;;;;;12.43;8.73;;;;;;;9.03;100.00;95454.94;1036270;28;20033;-61
2021/04/30 01:05:43;;;;;;;15.90;9.18;;;;;;;9.04;100.00;95451.28;1028319;28;20484;-61
2021/04/30 01:06:14;;;;;;;12.32;8.88;;;;;;;9.06;100.00;95454.59;1028320;28;20057;-61
2021/04/30 01:06:45;;;;;;;16.63;9.27;;;;;;;9.08;100.00;95457.06;1032173;28;20022;-62
2021/04/30 01:07:16;;;;;;;11.93;8.73;;;;;;;9.10;100.00;95463.81;1028190;28;20026;-61
2021/04/30 01:07:48;;;;;;;13.57;9.15;;;;;;;9.05;100.00;95456.38;1032256;28;20036;-61
2021/04/30 01:08:19;;;;;;;14.52;9.25;;;;;;;9.10;100.00;95466.47;1032231;28;20018;-61
2021/04/30 01:08:50;;;;;;;13.35;9.18;;;;;;;9.10;100.00;95455.84;1032173;28;20049;-60
2021/04/30 01:09:21;;;;;;;16.40;9.10;;;;;;;9.05;100.00;95464.34;1032282;28;20103;-61
2021/04/30 01:09:53;;;;;;;14.98;9.45;;;;;;;9.03;100.00;95461.03;1032280;28;20546;-61
2021/04/30 01:10:23;;;;;;;13.82;8.50;;;;;;;8.97;100.00;95445.03;1032268;28;20010;-61
2021/04/30 01:10:54;;;;;;;15.00;9.20;;;;;;;9.04;100.00;95462.69;1032180;28;20022;-60
2021/04/30 01:11:25;;;;;;;13.50;9.23;;;;;;;9.02;100.00;95459.41;1032269;28;20041;-59
2021/04/30 01:11:56;;;;;;;13.82;9.20;;;;;;;9.01;100.00;95459.59;1040455;28;20009;-62
2021/04/30 01:12:27;;;;;;;16.38;9.45;;;;;;;9.04;100.00;95461.88;1032161;28;20358;-60
2021/04/30 01:12:58;;;;;;;11.73;8.38;;;;;;;9.04;100.00;95461.88;1032085;28;20508;-60
2021/04/30 01:13:29;;;;;;;13.50;9.38;;;;;;;9.06;100.00;95455.41;1032091;28;20507;-60
2021/04/30 01:14:01;;;;;;;12.15;8.98;;;;;;;9.03;100.00;95462.88;1028136;28;20011;-61
2021/04/30 01:14:31;;;;;;;13.40;9.15;;;;;;;9.05;100.00;95463.53;1036251;28;20040;-60
2021/04/30 01:15:03;;;;;;;15.18;9.13;;;;;;;9.06;100.00;95462.53;1040354;28;20020;-61
2021/04/30 01:15:34;;;;;;;12.63;8.85;;;;;;;9.06;100.00;95459.88;1032127;28;20025;-60
2021/04/30 01:16:05;;;;;;;17.95;9.40;;;;;;;9.06;100.00;95458.03;1032284;28;20026;-60
2021/04/30 01:16:36;;;;;;;12.65;9.13;;;;;;;9.09;100.00;95459.53;1024239;29;20043;-61
2021/04/30 01:17:07;;;;;;;12.35;9.23;;;;;;;9.11;100.00;95464.63;1036161;28;20091;-61
2021/04/30 01:17:38;;;;;;;14.93;9.38;;;;;;;9.08;100.00;95457.06;1032228;28;20015;-61
2021/04/30 01:18:08;;;;;;;14.75;9.35;;;;;;;9.07;100.00;95456.22;1028227;28;20105;-61
2021/04/30 01:18:42;;;;;;;15.80;9.60;;;;;;;9.02;100.00;95454.13;1024241;28;20023;-60
2021/04/30 01:19:21;;;;;;;10.90;9.10;;;;;;;8.98;100.00;95463.41;1028114;28;20015;-60
2021/04/30 01:19:55;;;;;;;11.50;8.55;;;;;;;9.03;100.00;95462.88;1027987;28;20505;-60
2021/04/30 01:20:26;;;;;;;12.73;8.98;;;;;;;9.02;100.00;95448.81;1028213;28;20015;-61
2021/04/30 01:20:56;;;;;;;13.02;8.75;;;;;;;9.04;100.00;95461.88;1028182;28;20097;-61
2021/04/30 01:21:27;;;;;;;11.60;9.73;;;;;;;9.06;100.00;95457.22;1032105;28;20191;-61
2021/04/30 01:21:58;;;;;;;15.55;9.70;;;;;;;9.07;100.00;95461.50;1036255;28;20010;-61
2021/04/30 01:22:32;;;;;;;16.70;9.95;;;;;;;9.06;100.00;95458.03;1028178;28;20019;-60
2021/04/30 01:23:03;;;;;;;12.43;9.25;;;;;;;9.03;100.00;95461.03;1040335;28;20516;-61
2021/04/30 01:23:43;;;;;;;12.75;9.15;;;;;;;9.02;100.00;95466.50;1035949;28;20041;-61
2021/04/30 01:24:14;;;;;;;12.15;9.65;;;;;;;9.03;100.00;95461.03;1040375;28;20549;-60
2021/04/30 01:24:45;;;;;;;14.48;9.77;;;;;;;9.01;100.00;95460.41;1036265;28;20129;-61
2021/04/30 01:25:18;;;;;;;17.35;10.25;;;;;;;8.98;100.00;95460.75;1036190;28;20522;-60
2021/04/30 01:25:49;;;;;;;14.15;9.45;;;;;;;9.00;100.00;95461.41;1028214;28;20070;-60
2021/04/30 01:26:20;;;;;;;14.43;10.02;;;;;;;9.00;100.00;95461.41;1032166;28;20069;-61
2021/04/30 01:26:52;;;;;;;13.35;9.35;;;;;;;8.95;100.00;95455.84;1032257;28;20526;-59
2021/04/30 01:27:23;;;;;;;13.07;9.27;;;;;;;8.92;100.00;95460.63;1028169;28;20508;-61
2021/04/30 01:27:55;;;;;;;18.60;10.43;;;;;;;8.94;100.00;95456.81;1032148;28;20010;-60
2021/04/30 01:28:25;;;;;;;15.15;10.00;;;;;;;8.99;100.00;95458.94;1032231;28;20116;-61
2021/04/30 01:28:56;;;;;;;13.25;9.93;;;;;;;8.90;100.00;95467.94;1032251;28;20492;-61
2021/04/30 01:29:27;;;;;;;14.20;10.25;;;;;;;8.91;100.00;95462.47;1028127;28;20488;-62
2021/04/30 01:29:58;;;;;;;16.20;10.75;;;;;;;8.91;100.00;95465.13;1028131;28;20023;-60
2021/04/30 01:30:31;;;;;;;14.63;9.82;;;;;;;8.89;100.00;95464.47;1028174;28;20094;-61
2021/04/30 01:31:01;;;;;;;16.83;10.05;;;;;;;8.93;100.00;95470.25;1036343;28;20403;-61
2021/04/30 01:31:33;;;;;;;13.45;9.55;;;;;;;8.97;100.00;95469.72;1036205;28;20042;-60
2021/04/30 01:32:05;;;;;;;12.40;9.35;;;;;;;8.96;100.00;95464.59;1036234;28;20006;-60
2021/04/30 01:32:35;;;;;;;12.68;9.27;;;;;;;9.00;100.00;95463.22;1040322;28;20100;-61
2021/04/30 01:33:25;;;;;;;13.85;10.18;;;;;;;8.94;100.00;95466.59;1036266;28;20012;-61
2021/04/30 01:33:56;;;;;;;16.35;10.35;;;;;;;8.86;100.00;95446.28;1031923;28;20014;-61
2021/04/30 01:34:27;;;;;;;16.38;10.38;;;;;;;8.89;100.00;95464.47;1032064;28;20447;-60
2021/04/30 01:34:58;;;;;;;16.00;9.98;;;;;;;8.97;100.00;95461.78;1028112;28;20023;-61
2021/04/30 01:35:30;;;;;;;13.80;10.25;;;;;;;8.98;100.00;95463.41;1036189;28;20542;-61
2021/04/30 01:36:01;;;;;;;15.23;10.18;;;;;;;8.94;100.00;95462.13;1036053;28;20024;-60
2021/04/30 01:36:32;;;;;;;14.68;10.13;;;;;;;8.99;100.00;95465.06;1036201;28;20017;-61
2021/04/30 01:37:03;;;;;;;13.18;9.20;;;;;;;8.93;100.00;95468.41;1036231;28;20014;-61
2021/04/30 01:37:35;;;;;;;13.18;8.95;;;;;;;8.92;100.00;95466.78;1028158;28;20061;-60
2021/04/30 01:38:05;;;;;;;15.65;10.50;;;;;;;8.90;100.00;95471.44;1040250;28;20042;-59
2021/04/30 01:38:37;;;;;;;16.65;9.80;;;;;;;8.89;100.00;95476.91;1040269;28;20483;-61
2021/04/30 01:39:09;;;;;;;13.05;9.02;;;;;;;8.92;100.00;95473.88;1036213;28;20076;-62
2021/04/30 01:39:40;;;;;;;13.77;9.30;;;;;;;8.86;100.00;95476.25;1036141;28;20097;-61
2021/04/30 01:40:14;;;;;;;16.27;10.00;;;;;;;8.83;100.00;95473.97;1028086;28;20027;-61
2021/04/30 01:40:45;;;;;;;12.48;9.60;;;;;;;8.86;100.00;95475.41;1028008;28;20026;-61
2021/04/30 01:41:23;;;;;;;15.45;9.80;;;;;;;8.85;100.00;95464.00;1032159;28;20385;-62
2021/04/30 01:41:54;;;;;;;17.42;9.70;;;;;;;8.85;100.00;95474.59;1032196;28;20010;-61
2021/04/30 01:42:25;;;;;;;13.68;10.02;;;;;;;8.85;100.00;95479.09;1028032;28;20169;-60
2021/04/30 01:43:05;;;;;;;13.45;9.52;;;;;;;8.81;100.00;95473.31;1032139;28;20428;-61
2021/04/30 01:43:35;;;;;;;;;;;;;;;8.86;100.00;95470.97;1032381;28;20500;-61
2021/04/30 01:44:08;;;;;;;12.00;8.57;;;;;;;8.91;100.00;95465.13;1031850;28;19901;-59
2021/04/30 01:44:39;;;;;;;12.57;8.75;;;;;;;8.83;100.00;95475.75;1028257;28;20380;-61
2021/04/30 01:45:11;;;;;;;12.68;9.00;;;;;;;8.81;100.00;95473.31;1040181;28;20010;-61
2021/04/30 01:45:52;;;;;;;10.70;8.63;;;;;;;8.88;100.00;95476.06;1036171;28;20013;-61
2021/04/30 01:46:23;;;;;;;13.07;9.48;;;;;;;8.89;100.00;95479.56;1032148;28;20020;-60
2021/04/30 01:46:53;;;;;;;13.68;8.52;;;;;;;8.90;100.00;95473.22;1032167;28;20037;-60
2021/04/30 01:47:24;;;;;;;13.88;9.00;;;;;;;8.91;100.00;95469.59;1032032;28;20046;-60
2021/04/30 01:47:55;;;;;;;13.60;9.18;;;;;;;8.81;100.00;95473.31;1028163;28;20106;-60
2021/04/30 01:48:28;;;;;;;15.50;9.23;;;;;;;8.78;100.00;95473.66;1032023;28;20105;-61
2021/04/30 01:48:59;;;;;;;12.45;8.77;;;;;;;8.79;100.00;95470.00;1028229;28;20015;-60
2021/04/30 01:49:30;;;;;;;14.57;10.02;;;;;;;8.84;100.00;95462.34;1028099;28;20022;-60
2021/04/30 01:50:01;;;;;;;10.68;8.40;;;;;;;8.84;100.00;95477.41;1032231;28;20495;-60
2021/04/30 01:50:32;;;;;;;15.77;9.57;;;;;;;8.82;100.00;95467.00;1031981;28;20113;-61
2021/04/30 01:51:04;;;;;;;10.63;8.45;;;;;;;8.86;100.00;95465.66;1032276;28;20127;-61
2021/04/30 01:51:35;;;;;;;13.35;9.00;;;;;;;8.86;100.00;95464.81;1028036;28;20015;-62
2021/04/30 01:52:06;;;;;;;11.35;8.75;;;;;;;8.89;100.00;95459.19;1028175;28;20071;-59
2021/04/30 01:52:38;;;;;;;11.82;8.95;;;;;;;8.91;100.00;95467.75;1031922;28;20037;-61
2021/04/30 01:53:11;;;;;;;12.80;8.82;;;;;;;8.90;100.00;95467.94;1036182;28;20476;-61
2021/04/30 01:53:42;;;;;;;16.23;9.98;;;;;;;8.91;100.00;95461.66;1031879;28;20389;-61
2021/04/30 01:54:13;;;;;;;12.68;8.80;;;;;;;8.81;100.00;95446.00;1032164;28;20030;-61
2021/04/30 01:54:50;;;;;;;13.15;9.23;;;;;;;8.82;100.00;95467.00;1040126;28;20021;-60
2021/04/30 01:55:25;;;;;;;11.70;9.20;;;;;;;8.83;100.00;95460.72;1036117;28;20104;-61
2021/04/30 01:55:56;;;;;;;13.77;9.05;;;;;;;8.89;100.00;95466.31;1027945;28;20021;-60
2021/04/30 01:56:27;;;;;;;13.02;9.05;;;;;;;8.90;100.00;95470.59;1035557;28;20014;-60
2021/04/30 01:56:58;;;;;;;12.68;9.00;;;;;;;8.83;100.00;95462.53;1031990;28;20476;-60
2021/04/30 01:57:29;;;;;;;11.30;8.35;;;;;;;8.85;100.00;95477.25;1032155;28;20154;-60
2021/04/30 01:58:02;;;;;;;12.20;9.55;;;;;;;8.70;100.00;95473.72;1032033;28;20459;-60
2021/04/30 01:58:33;;;;;;;12.88;9.18;;;;;;;8.68;100.00;95478.38;1027976;28;20018;-59
2021/04/30 01:59:04;;;;;;;16.25;9.38;;;;;;;8.68;100.00;95483.66;1032015;28;20014;-60
2021/04/30 01:59:34;;;;;;;11.52;8.93;;;;;;;8.63;100.00;95480.72;1028110;28;20452;-61
2021/04/30 02:00:06;;;;;;;14.68;9.77;;;;;;;8.67;100.00;95485.50;1036020;28;20427;-61
2021/04/30 02:00:37;;;;;;;12.95;9.13;;;;;;;8.72;100.00;95484.13;1032103;28;20017;-61
2021/04/30 02:01:09;;;;;;;15.55;9.05;;;;;;;8.59;100.00;95474.13;1032003;28;20074;-61
2021/04/30 02:01:40;;;;;;;13.02;9.07;;;;;;;8.63;100.00;95480.72;1032096;28;20019;-60
2021/04/30 02:02:11;;;;;;;17.23;9.55;;;;;;;8.63;100.00;95486.81;1036075;28;20014;-61
2021/04/30 02:02:44;;;;;;;13.85;9.70;;;;;;;8.62;100.00;95485.19;1032088;28;20370;-60
2021/04/30 02:03:15;;;;;;;12.77;9.18;;;;;;;8.65;100.00;95484.00;1031999;28;20014;-61
2021/04/30 02:03:46;;;;;;;15.48;8.55;;;;;;;8.58;100.00;95477.75;1027894;28;20019;-61
2021/04/30 02:04:17;;;;;;;14.18;9.20;;;;;;;8.58;100.00;95485.72;1036071;28;20113;-61
2021/04/30 02:04:48;;;;;;;12.65;8.90;;;;;;;8.62;100.00;95487.00;1032081;28;20037;-60
2021/04/30 02:05:20;;;;;;;12.93;9.00;;;;;;;8.63;100.00;95486.81;1031957;28;20019;-61
2021/04/30 02:05:51;;;;;;;14.60;9.82;;;;;;;8.62;100.00;95485.19;1036122;28;20033;-60
2021/04/30 02:06:22;;;;;;;11.45;8.98;;;;;;;8.63;100.00;95480.72;1028143;28;20474;-61
2021/04/30 02:06:53;;;;;;;13.00;9.07;;;;;;;8.63;100.00;95486.00;1032146;28;20025;-61
2021/04/30 02:07:24;;;;;;;13.73;9.57;;;;;;;8.61;100.00;95486.19;1031870;28;20055;-59
2021/04/30 02:07:59;;;;;;;13.90;9.55;;;;;;;8.66;100.00;95480.38;1032132;28;20037;-60
2021/04/30 02:08:30;;;;;;;13.38;9.00;;;;;;;8.62;100.00;95485.19;1028023;28;20026;-61
2021/04/30 02:09:01;;;;;;;12.55;9.45;;;;;;;8.51;100.00;95472.34;1036122;28;20380;-60
2021/04/30 02:09:32;;;;;;;13.10;9.02;;;;;;;8.55;100.00;95483.41;1031929;28;20010;-60
2021/04/30 02:10:03;;;;;;;13.07;8.63;;;;;;;8.58;100.00;95480.41;1023980;28;20408;-60
2021/04/30 02:10:34;;;;;;;15.65;10.13;;;;;;;8.53;100.00;95480.13;1028040;28;20077;-61
2021/04/30 02:11:05;;;;;;;14.70;9.63;;;;;;;8.57;100.00;95482.25;1027990;28;20520;-61
2021/04/30 02:11:36;;;;;;;15.75;9.93;;;;;;;8.57;100.00;95479.59;1040092;28;20520;-59
2021/04/30 02:12:08;;;;;;;11.38;9.38;;;;;;;8.55;100.00;95478.97;1040178;28;20017;-61
2021/04/30 02:12:39;;;;;;;14.68;10.10;;;;;;;8.47;100.00;95485.09;1040147;28;20021;-60
2021/04/30 02:13:10;;;;;;;17.48;9.65;;;;;;;8.48;100.00;95477.97;1031994;28;20138;-61
2021/04/30 02:13:41;;;;;;;14.10;9.85;;;;;;;8.48;100.00;95477.97;1039924;28;20037;-61
2021/04/30 02:14:12;;;;;;;12.68;9.90;;;;;;;8.39;100.00;95474.53;1040240;28;20569;-61
2021/04/30 02:14:42;;;;;;;12.77;10.00;;;;;;;8.38;100.00;95474.72;1032159;28;20019;-60
2021/04/30 02:15:15;;;;;;;16.88;9.93;;;;;;;8.33;100.00;95475.25;1027945;28;20125;-60
2021/04/30 02:15:47;;;;;;;15.60;10.52;;;;;;;8.30;100.00;95471.09;1027971;28;20022;-60
2021/04/30 02:16:18;;;;;;;14.43;10.57;;;;;;;8.27;100.00;95481.22;1036153;28;20384;-61
2021/04/30 02:16:49;;;;;;;14.18;10.98;;;;;;;8.22;100.00;95476.47;1032020;28;20018;-61
2021/04/30 02:17:20;;;;;;;14.25;10.50;;;;;;;8.20;100.00;95481.06;1028053;28;20495;-61
2021/04/30 02:17:51;;;;;;;14.07;9.93;;;;;;;8.23;100.00;95479.91;1035978;28;20038;-61
2021/04/30 02:18:22;;;;;;;16.27;11.55;;;;;;;8.27;100.00;95482.06;1028039;28;20436;-61
2021/04/30 02:18:53;;;;;;;18.77;11.50;;;;;;;8.25;100.00;95480.56;1028053;28;20054;-61
2021/04/30 02:19:24;;;;;;;14.32;10.43;;;;;;;8.28;100.00;95478.38;1036114;28;20048;-59
2021/04/30 02:19:55;;;;;;;14.18;9.93;;;;;;;8.26;100.00;95484.88;1036220;28;20098;-60
2021/04/30 02:20:26;;;;;;;15.80;10.68;;;;;;;8.29;100.00;95482.69;1036229;28;20029;-61
2021/04/30 02:20:57;;;;;;;17.15;10.88;;;;;;;8.34;100.00;95482.16;1036029;28;20407;-60
2021/04/30 02:21:27;;;;;;;19.05;10.85;;;;;;;8.27;100.00;95470.63;1036071;28;20499;-63
2021/04/30 02:21:58;;;;;;;13.77;9.90;;;;;;;8.35;100.00;95481.16;1036055;28;20624;-60
2021/04/30 02:22:29;;;;;;;13.48;9.40;;;;;;;8.33;100.00;95474.41;1028061;28;20591;-61
2021/04/30 02:23:00;;;;;;;13.68;9.95;;;;;;;8.40;100.00;95478.84;1031993;28;20018;-61
2021/04/30 02:23:31;;;;;;;13.90;9.82;;;;;;;8.38;100.00;95477.38;1040000;28;20056;-61
2021/04/30 02:24:02;;;;;;;13.35;10.32;;;;;;;8.32;100.00;95463.00;1039970;28;20021;-62
2021/04/30 02:24:33;;;;;;;14.30;10.18;;;;;;;8.39;100.00;95479.00;1040149;28;20022;-61
2021/04/30 02:25:04;;;;;;;15.80;11.50;;;;;;;8.25;100.00;95462.84;1036055;28;20483;-61
2021/04/30 02:25:35;;;;;;;16.15;10.43;;;;;;;8.37;100.00;95475.72;1032005;28;20029;-59
2021/04/30 02:26:06;;;;;;;18.73;10.65;;;;;;;8.39;100.00;95479.81;1036057;28;20120;-61
2021/04/30 02:26:37;;;;;;;14.20;10.43;;;;;;;8.39;100.00;95476.34;1028070;28;20097;-61